Time;durP1;ratioP1;P1;durP2;ratioP2;P2;SDS_P1;SDS_P2;PMS_P1;PMS_P2;Temp;Humidity;BMP_temperature;BMP_pressure;BME280_temperature;BME280_humidity;BME280_pressure;Samples;Min_cycle;Max_cycle;Signal;HPM_P1;HPM_P2
2023/10/07 00:00:47;;;;;;;5.90;4.33;;;;;15.50;101577.00;;;;5023576;28;20730;-73
2023/10/07 00:03:34;;;;;;;9.23;4.37;;;;;15.50;101599.00;;;;5022499;28;20240;-73
2023/10/07 00:06:26;;;;;;;11.00;4.67;;;;;15.40;101597.00;;;;5020972;28;20238;-74
2023/10/07 00:09:15;;;;;;;11.20;4.67;;;;;15.40;101608.00;;;;5018446;28;20714;-75
2023/10/07 00:12:02;;;;;;;11.87;4.80;;;;;15.40;101595.00;;;;5020715;28;20239;-78
2023/10/07 00:14:50;;;;;;;7.10;4.30;;;;;15.40;101598.00;;;;5008486;28;20356;-75
2023/10/07 00:17:39;;;;;;;8.53;4.30;;;;;15.40;101596.00;;;;5012778;28;20232;-73
2023/10/07 00:20:27;;;;;;;9.73;4.23;;;;;15.40;101593.00;;;;5022690;28;20248;-73
2023/10/07 00:23:18;;;;;;;10.70;4.80;;;;;15.40;101583.00;;;;5022779;28;20822;-74
2023/10/07 00:26:09;;;;;;;10.07;4.57;;;;;15.30;101582.00;;;;5026828;28;20338;-73
2023/10/07 00:29:00;;;;;;;10.77;4.60;;;;;15.40;101567.00;;;;5016421;28;20260;-73
2023/10/07 00:31:50;;;;;;;8.50;4.70;;;;;15.40;101569.00;;;;5026680;28;20352;-74
2023/10/07 00:34:39;;;;;;;7.93;4.50;;;;;15.40;101568.00;;;;5024321;28;20724;-75
2023/10/07 00:37:26;;;;;;;8.07;4.40;;;;;15.30;101561.00;;;;5021669;28;20279;-73
2023/10/07 00:40:30;;;;;;;8.53;4.47;;;;;15.30;101568.00;;;;5024586;28;20635;-74
2023/10/07 00:43:26;;;;;;;10.83;4.63;;;;;15.30;101561.00;;;;5014256;28;20237;-75
2023/10/07 00:46:21;;;;;;;8.83;4.30;;;;;15.30;101559.00;;;;5027846;28;20225;-73
2023/10/07 00:49:15;;;;;;;9.47;4.53;;;;;15.30;101564.00;;;;5021059;28;20357;-74
2023/10/07 00:52:05;;;;;;;8.57;4.27;;;;;15.30;101571.00;;;;5020239;28;20684;-74
2023/10/07 00:54:59;;;;;;;6.67;4.53;;;;;15.40;101554.00;;;;5028200;28;20233;-74
2023/10/07 00:57:51;;;;;;;11.10;4.70;;;;;15.40;101546.00;;;;5022611;28;20229;-74
2023/10/07 01:00:46;;;;;;;6.80;4.13;;;;;15.40;101551.00;;;;5023641;28;20229;-74
2023/10/07 01:03:47;;;;;;;9.33;4.43;;;;;15.30;101553.00;;;;5031749;28;20311;-76
2023/10/07 01:06:38;;;;;;;8.93;4.40;;;;;15.30;101555.00;;;;5026442;28;20235;-73
2023/10/07 01:09:24;;;;;;;7.07;4.23;;;;;15.30;101541.00;;;;5024071;28;20233;-74
2023/10/07 01:12:11;;;;;;;9.00;4.40;;;;;15.30;101540.00;;;;5021370;28;20366;-75
2023/10/07 01:14:58;;;;;;;8.43;4.73;;;;;15.40;101542.00;;;;5027580;28;20238;-74
2023/10/07 01:17:45;;;;;;;6.63;3.80;;;;;15.40;101556.00;;;;5019902;28;20303;-75
2023/10/07 01:21:00;;;;;;;10.10;4.13;;;;;15.40;101565.00;;;;5025829;28;20371;-76
2023/10/07 01:23:44;;;;;;;9.13;4.23;;;;;15.40;101562.00;;;;5027129;28;20252;-78
2023/10/07 01:26:39;;;;;;;7.23;4.07;;;;;15.40;101563.00;;;;5022259;28;20308;-75
2023/10/07 01:29:28;;;;;;;8.50;3.97;;;;;15.40;101559.00;;;;5022302;28;20268;-74
2023/10/07 01:32:16;;;;;;;5.77;4.07;;;;;15.50;101565.00;;;;5017597;28;20237;-75
2023/10/07 01:35:10;;;;;;;7.97;4.07;;;;;15.40;101568.00;;;;5009829;28;20232;-73
2023/10/07 01:38:08;;;;;;;10.87;4.43;;;;;15.40;101556.00;;;;5036041;28;20236;-74
2023/10/07 01:41:04;;;;;;;10.23;3.97;;;;;15.40;101562.00;;;;5029529;28;20952;-75
2023/10/07 01:43:59;;;;;;;7.73;4.23;;;;;15.40;101545.00;;;;5025316;28;20294;-73
2023/10/07 01:46:46;;;;;;;15.33;4.40;;;;;15.40;101560.00;;;;5013512;28;20243;-73
2023/10/07 01:49:33;;;;;;;9.97;4.27;;;;;15.50;101545.00;;;;5015676;28;20233;-74
2023/10/07 01:52:21;;;;;;;8.00;4.20;;;;;15.40;101540.00;;;;5016314;28;20288;-73
2023/10/07 01:55:09;;;;;;;8.77;4.13;;;;;15.50;101528.00;;;;5019498;28;20279;-71
2023/10/07 01:57:56;;;;;;;6.80;3.80;;;;;15.50;101548.00;;;;5023190;28;20244;-74
2023/10/07 02:00:45;;;;;;;8.60;4.10;;;;;15.50;101548.00;;;;5023240;28;20261;-75
2023/10/07 02:03:32;;;;;;;8.37;4.13;;;;;15.50;101552.00;;;;5020961;28;20760;-74
2023/10/07 02:06:19;;;;;;;11.10;4.60;;;;;15.50;101542.00;;;;5022872;28;20363;-76
2023/10/07 02:09:06;;;;;;;9.70;4.53;;;;;15.50;101529.00;;;;5012490;28;20222;-75
2023/10/07 02:11:53;;;;;;;10.93;5.30;;;;;15.50;101527.00;;;;5023848;28;20243;-73
2023/10/07 02:14:42;;;;;;;12.60;5.03;;;;;15.60;101538.00;;;;5023279;28;20263;-75
2023/10/07 02:17:28;;;;;;;8.27;3.83;;;;;15.60;101544.00;;;;5022127;28;20237;-75
2023/10/07 02:20:38;;;;;;;8.47;5.00;;;;;15.50;101556.00;;;;5018627;28;20224;-75
2023/10/07 02:23:36;;;;;;;9.57;4.17;;;;;15.50;101549.00;;;;5018245;28;20837;-75
2023/10/07 02:26:25;;;;;;;8.60;4.37;;;;;15.40;101553.00;;;;5017123;28;20232;-75
2023/10/07 02:29:13;;;;;;;10.83;4.53;;;;;15.50;101561.00;;;;5027050;28;20252;-74
2023/10/07 02:32:14;;;;;;;8.17;3.97;;;;;15.50;101569.00;;;;5019385;28;20398;-74
2023/10/07 02:35:02;;;;;;;12.73;5.13;;;;;15.50;101566.00;;;;5024556;28;20270;-73
2023/10/07 02:37:50;;;;;;;9.80;5.20;;;;;15.50;101558.00;;;;5028951;28;20240;-75
2023/10/07 02:40:48;;;;;;;11.87;5.03;;;;;15.50;101558.00;;;;5023753;28;20231;-74
2023/10/07 02:43:35;;;;;;;9.27;4.77;;;;;15.50;101554.00;;;;5016103;28;20238;-75
2023/10/07 02:46:31;;;;;;;9.67;5.13;;;;;15.50;101547.00;;;;5020268;28;20414;-74
2023/10/07 02:49:20;;;;;;;7.47;4.77;;;;;15.50;101555.00;;;;5018254;28;20309;-75
2023/10/07 02:52:16;;;;;;;12.03;5.30;;;;;15.50;101546.00;;;;5015692;28;20231;-74
2023/10/07 02:55:28;;;;;;;9.97;4.67;;;;;15.60;101549.00;;;;5024061;28;20279;-75
2023/10/07 02:58:27;;;;;;;10.67;5.03;;;;;15.50;101550.00;;;;5017186;28;20301;-75
2023/10/07 03:01:19;;;;;;;10.33;5.13;;;;;15.50;101552.00;;;;5018481;28;20232;-75
2023/10/07 03:04:10;;;;;;;9.83;5.07;;;;;15.50;101551.00;;;;5011701;28;20595;-74
2023/10/07 03:07:00;;;;;;;12.13;5.23;;;;;15.50;101547.00;;;;5020010;28;20322;-76
2023/10/07 03:09:53;;;;;;;12.87;5.80;;;;;15.50;101553.00;;;;5014245;28;20583;-74
2023/10/07 03:12:47;;;;;;;11.90;5.97;;;;;15.50;101550.00;;;;5007931;28;20257;-73
2023/10/07 03:15:41;;;;;;;14.33;6.13;;;;;15.60;101541.00;;;;5022069;28;20740;-75
2023/10/07 03:18:30;;;;;;;10.73;6.20;;;;;15.60;101547.00;;;;5023716;28;20233;-72
2023/10/07 03:21:21;;;;;;;13.73;6.80;;;;;15.60;101548.00;;;;5024267;28;20234;-74
2023/10/07 03:24:10;;;;;;;12.67;6.27;;;;;15.60;101539.00;;;;5021433;28;20688;-74
2023/10/07 03:27:05;;;;;;;11.30;6.67;;;;;15.70;101536.00;;;;5017145;28;20225;-74
2023/10/07 03:30:12;;;;;;;13.50;6.60;;;;;15.60;101540.00;;;;5027981;28;20227;-75
2023/10/07 03:33:01;;;;;;;13.10;6.97;;;;;15.70;101538.00;;;;5024355;28;20347;-74
2023/10/07 03:36:08;;;;;;;12.57;7.10;;;;;15.60;101531.00;;;;5018625;28;20252;-75
2023/10/07 03:39:09;;;;;;;16.50;7.07;;;;;15.60;101536.00;;;;5022757;28;20237;-77
2023/10/07 03:41:59;;;;;;;13.70;6.27;;;;;15.60;101544.00;;;;5021384;28;20246;-74
2023/10/07 03:44:46;;;;;;;14.30;7.43;;;;;15.70;101546.00;;;;5021410;28;20232;-74
2023/10/07 03:47:32;;;;;;;15.50;8.03;;;;;15.60;101556.00;;;;5025300;28;20369;-74
2023/10/07 03:50:34;;;;;;;15.67;7.90;;;;;15.60;101564.00;;;;5019707;28;20230;-73
2023/10/07 03:53:23;;;;;;;13.83;7.87;;;;;15.70;101558.00;;;;5020733;28;20257;-73
2023/10/07 03:56:10;;;;;;;13.10;7.33;;;;;15.70;101557.00;;;;5024303;28;20234;-74
2023/10/07 03:58:59;;;;;;;12.93;8.20;;;;;15.70;101550.00;;;;5015445;28;20316;-74
2023/10/07 04:01:46;;;;;;;16.77;8.47;;;;;15.70;101547.00;;;;5023623;28;20239;-78
2023/10/07 04:04:32;;;;;;;19.33;8.30;;;;;15.70;101546.00;;;;5024066;28;20368;-75
2023/10/07 04:07:19;;;;;;;21.33;8.30;;;;;15.70;101538.00;;;;5020584;28;20225;-76
2023/10/07 04:10:13;;;;;;;15.83;7.90;;;;;15.70;101551.00;;;;5023515;28;20235;-73
2023/10/07 04:12:59;;;;;;;14.63;8.47;;;;;15.70;101548.00;;;;5022730;28;20253;-72
2023/10/07 04:15:51;;;;;;;13.63;8.40;;;;;15.70;101553.00;;;;5019359;28;20237;-75
2023/10/07 04:18:40;;;;;;;20.37;8.77;;;;;15.70;101548.00;;;;5017365;28;20292;-74
2023/10/07 04:21:30;;;;;;;15.73;8.93;;;;;15.70;101542.00;;;;5014470;28;20241;-74
2023/10/07 04:24:18;;;;;;;18.00;8.67;;;;;15.70;101539.00;;;;5016672;28;20234;-73
2023/10/07 04:27:06;;;;;;;16.50;10.20;;;;;15.60;101531.00;;;;5024010;28;20237;-73
2023/10/07 04:29:53;;;;;;;18.93;9.57;;;;;15.70;101522.00;;;;5019396;28;20233;-74
2023/10/07 04:32:52;;;;;;;15.50;9.23;;;;;15.70;101521.00;;;;5013791;28;20378;-75
2023/10/07 04:35:39;;;;;;;17.50;9.53;;;;;15.80;101526.00;;;;5012368;28;20607;-77
2023/10/07 04:38:39;;;;;;;17.63;9.93;;;;;15.80;101529.00;;;;5020739;28;20342;-75
2023/10/07 04:41:30;;;;;;;17.40;10.37;;;;;15.80;101527.00;;;;5021359;28;20240;-74
2023/10/07 04:45:00;;;;;;;15.43;9.30;;;;;15.80;101531.00;;;;5024539;28;20312;-75
2023/10/07 04:47:34;;;;;;;22.00;9.87;;;;;15.80;101530.00;;;;5028069;28;20229;-74
2023/10/07 04:50:33;;;;;;;17.13;10.47;;;;;15.80;101527.00;;;;5022800;28;20237;-73
2023/10/07 04:53:25;;;;;;;21.07;10.20;;;;;15.70;101525.00;;;;5020252;28;20242;-74
2023/10/07 04:56:20;;;;;;;18.40;10.47;;;;;15.80;101516.00;;;;5026113;28;20236;-77
2023/10/07 04:59:06;;;;;;;23.87;10.73;;;;;15.80;101528.00;;;;5025892;28;20233;-73
2023/10/07 05:02:01;;;;;;;21.00;11.00;;;;;15.80;101524.00;;;;5019911;28;20280;-72
2023/10/07 05:04:50;;;;;;;25.07;11.33;;;;;15.80;101528.00;;;;5026761;28;20227;-75
2023/10/07 05:07:39;;;;;;;22.77;11.57;;;;;15.80;101535.00;;;;5025845;28;20231;-73
2023/10/07 05:10:28;;;;;;;23.17;12.53;;;;;15.90;101522.00;;;;5020739;28;20236;-73
2023/10/07 05:13:15;;;;;;;26.10;12.23;;;;;15.80;101526.00;;;;5024676;28;20237;-73
2023/10/07 05:16:05;;;;;;;18.27;11.70;;;;;15.90;101533.00;;;;5026051;28;20228;-74
2023/10/07 05:18:53;;;;;;;24.00;12.43;;;;;15.80;101527.00;;;;5018351;28;20256;-73
2023/10/07 05:21:39;;;;;;;28.53;12.03;;;;;15.80;101523.00;;;;5020827;28;20226;-73
2023/10/07 05:24:32;;;;;;;26.27;12.63;;;;;15.80;101526.00;;;;5017497;28;20935;-73
2023/10/07 05:27:19;;;;;;;21.97;12.57;;;;;15.80;101523.00;;;;5026334;28;20280;-74
2023/10/07 05:30:08;;;;;;;20.20;11.90;;;;;15.90;101521.00;;;;5017290;28;20233;-74
2023/10/07 05:32:59;;;;;;;27.13;11.83;;;;;15.90;101529.00;;;;5021850;28;20293;-73
2023/10/07 05:35:46;;;;;;;26.10;12.77;;;;;15.90;101525.00;;;;5016950;28;20300;-71
2023/10/07 05:38:35;;;;;;;24.87;12.10;;;;;15.90;101522.00;;;;5020685;28;20307;-75
2023/10/07 05:41:25;;;;;;;27.27;12.63;;;;;16.00;101528.00;;;;5027271;28;20294;-74
2023/10/07 05:44:14;;;;;;;25.50;12.57;;;;;15.90;101532.00;;;;5016075;28;20715;-76
2023/10/07 05:47:02;;;;;;;24.80;12.57;;;;;15.90;101542.00;;;;5022017;28;20229;-75
2023/10/07 05:49:49;;;;;;;24.83;12.60;;;;;16.00;101525.00;;;;5016722;28;20722;-74
2023/10/07 05:52:36;;;;;;;24.40;12.90;;;;;16.00;101534.00;;;;5027496;28;20722;-77
2023/10/07 05:55:22;;;;;;;23.47;12.10;;;;;16.00;101526.00;;;;5023393;28;20237;-74
2023/10/07 05:58:12;;;;;;;28.03;13.30;;;;;16.00;101532.00;;;;5025023;28;20233;-72
2023/10/07 06:00:59;;;;;;;21.43;11.83;;;;;16.00;101534.00;;;;5022626;28;20236;-74
2023/10/07 06:03:46;;;;;;;22.67;12.13;;;;;16.00;101530.00;;;;5019785;28;20257;-75
2023/10/07 06:06:33;;;;;;;27.63;12.63;;;;;16.00;101529.00;;;;5015015;28;20237;-74
2023/10/07 06:09:21;;;;;;;25.73;13.10;;;;;16.00;101529.00;;;;5023959;28;20230;-74
2023/10/07 06:12:09;;;;;;;21.43;12.60;;;;;16.00;101531.00;;;;5023974;28;20303;-74
2023/10/07 06:14:59;;;;;;;21.37;12.03;;;;;16.10;101531.00;;;;5025938;28;20245;-74
2023/10/07 06:17:46;;;;;;;23.53;12.27;;;;;16.10;101531.00;;;;5023986;28;20229;-73
2023/10/07 06:20:37;;;;;;;19.83;11.63;;;;;16.10;101534.00;;;;5020903;28;20236;-73
2023/10/07 06:23:24;;;;;;;23.70;13.10;;;;;16.00;101537.00;;;;5018651;28;20229;-74
2023/10/07 06:26:12;;;;;;;19.87;12.40;;;;;16.00;101528.00;;;;5020335;28;20241;-75
2023/10/07 06:29:05;;;;;;;20.37;12.47;;;;;16.00;101535.00;;;;5015953;28;20289;-75
2023/10/07 06:31:55;;;;;;;22.23;12.53;;;;;16.10;101536.00;;;;5023474;28;20299;-73
2023/10/07 06:34:42;;;;;;;21.73;12.47;;;;;16.10;101525.00;;;;5013139;28;20738;-75
2023/10/07 06:37:31;;;;;;;24.63;13.37;;;;;16.10;101540.00;;;;5020345;28;20291;-74
2023/10/07 06:40:25;;;;;;;21.53;12.90;;;;;16.10;101539.00;;;;5009614;28;20229;-74
2023/10/07 06:43:14;;;;;;;26.67;12.93;;;;;16.20;101533.00;;;;5016760;28;20722;-74
2023/10/07 06:46:01;;;;;;;21.60;13.30;;;;;16.20;101539.00;;;;5009257;28;20234;-75
2023/10/07 06:48:49;;;;;;;25.93;14.67;;;;;16.20;101538.00;;;;5018999;28;20730;-75
2023/10/07 06:51:36;;;;;;;23.90;12.77;;;;;16.20;101546.00;;;;5014545;28;20777;-73
2023/10/07 06:54:23;;;;;;;26.30;13.13;;;;;16.30;101545.00;;;;5024520;28;20245;-74
2023/10/07 06:57:10;;;;;;;23.53;13.17;;;;;16.30;101548.00;;;;5022318;28;20279;-72
2023/10/07 06:59:56;;;;;;;22.07;12.70;;;;;16.40;101540.00;;;;5018638;28;20741;-74
2023/10/07 07:02:43;;;;;;;26.93;13.57;;;;;16.40;101531.00;;;;5021907;28;20225;-74
2023/10/07 07:05:35;;;;;;;23.97;12.53;;;;;16.40;101544.00;;;;5011381;28;20230;-74
2023/10/07 07:08:23;;;;;;;22.57;12.27;;;;;16.40;101546.00;;;;5022162;28;20310;-76
2023/10/07 07:11:11;;;;;;;23.80;13.77;;;;;16.40;101544.00;;;;5010238;28;20238;-76
2023/10/07 07:13:57;;;;;;;26.07;13.50;;;;;16.40;101554.00;;;;5018254;28;20245;-75
2023/10/07 07:16:44;;;;;;;23.27;13.03;;;;;16.40;101555.00;;;;5018790;28;20217;-78
2023/10/07 07:19:37;;;;;;;23.13;13.07;;;;;16.40;101549.00;;;;5022884;28;20760;-73
2023/10/07 07:22:24;;;;;;;22.23;13.20;;;;;16.50;101542.00;;;;5017648;28;20735;-76
2023/10/07 07:25:17;;;;;;;29.93;13.13;;;;;16.40;101550.00;;;;5025374;28;20233;-75
2023/10/07 07:28:10;;;;;;;19.83;12.73;;;;;16.50;101549.00;;;;5021339;28;20233;-73
2023/10/07 07:30:57;;;;;;;21.70;12.47;;;;;16.50;101548.00;;;;5010973;28;20761;-77
2023/10/07 07:33:44;;;;;;;27.23;12.97;;;;;16.60;101555.00;;;;5017723;28;20747;-72
2023/10/07 07:36:38;;;;;;;21.60;12.13;;;;;16.70;101563.00;;;;5019265;28;20300;-75
2023/10/07 07:39:30;;;;;;;23.90;12.80;;;;;16.70;101559.00;;;;5017921;28;20249;-75
2023/10/07 07:42:21;;;;;;;19.73;11.27;;;;;16.80;101555.00;;;;5017235;28;20295;-75
2023/10/07 07:45:15;;;;;;;19.37;11.93;;;;;16.90;101542.00;;;;5022724;28;20784;-73
2023/10/07 07:48:04;;;;;;;19.20;11.13;;;;;16.90;101578.00;;;;5021440;28;20233;-74
2023/10/07 07:50:54;;;;;;;17.77;10.77;;;;;17.00;101583.00;;;;5019383;28;20238;-76
2023/10/07 07:53:40;;;;;;;20.00;10.53;;;;;16.90;101584.00;;;;5022628;28;20365;-75
2023/10/07 07:56:30;;;;;;;19.90;10.20;;;;;17.00;101567.00;;;;5023795;28;20299;-75
2023/10/07 07:59:17;;;;;;;18.80;9.87;;;;;16.90;101572.00;;;;5019829;28;20299;-71
2023/10/07 08:02:12;;;;;;;16.77;9.50;;;;;17.00;101586.00;;;;5021832;28;20337;-73
2023/10/07 08:05:02;;;;;;;15.60;8.87;;;;;16.90;101588.00;;;;5018148;28;20237;-74
2023/10/07 08:07:51;;;;;;;21.00;9.87;;;;;17.00;101586.00;;;;5021413;28;20710;-75
2023/10/07 08:10:38;;;;;;;16.43;8.23;;;;;17.00;101593.00;;;;5023303;28;20229;-76
2023/10/07 08:13:27;;;;;;;12.77;8.40;;;;;17.00;101574.00;;;;5018154;28;20233;-74
2023/10/07 08:16:17;;;;;;;14.77;8.83;;;;;17.10;101582.00;;;;5021733;28;20233;-74
2023/10/07 08:19:05;;;;;;;15.07;8.20;;;;;17.20;101584.00;;;;5027586;28;20233;-74
2023/10/07 08:21:53;;;;;;;12.17;7.80;;;;;17.20;101579.00;;;;5028900;28;20240;-74
2023/10/07 08:24:40;;;;;;;12.50;7.67;;;;;17.30;101560.00;;;;5020681;28;20384;-74
2023/10/07 08:27:45;;;;;;;12.57;7.80;;;;;17.40;101554.00;;;;5027633;28;20233;-74
2023/10/07 08:30:38;;;;;;;12.63;7.07;;;;;17.50;101558.00;;;;5027047;28;20739;-74
2023/10/07 08:33:24;;;;;;;13.53;6.83;;;;;17.50;101545.00;;;;5021430;28;20229;-73
2023/10/07 08:36:10;;;;;;;10.53;6.23;;;;;17.50;101547.00;;;;5026883;28;20850;-75
2023/10/07 08:38:59;;;;;;;14.77;5.97;;;;;17.60;101553.00;;;;5021484;28;20749;-77
2023/10/07 08:41:52;;;;;;;9.20;6.30;;;;;17.40;101547.00;;;;5022274;28;20368;-75
2023/10/07 08:44:39;;;;;;;13.83;6.07;;;;;17.50;101544.00;;;;5023721;28;20315;-74
2023/10/07 08:47:39;;;;;;;13.43;5.63;;;;;17.40;101560.00;;;;5020026;28;20304;-76
2023/10/07 08:50:29;;;;;;;10.87;5.73;;;;;17.50;101554.00;;;;5022037;28;20354;-73
2023/10/07 08:53:16;;;;;;;12.53;6.30;;;;;17.50;101551.00;;;;5023106;28;20233;-74
2023/10/07 08:56:04;;;;;;;11.83;5.87;;;;;17.50;101554.00;;;;5015246;28;20257;-75
2023/10/07 08:58:50;;;;;;;7.90;5.37;;;;;17.60;101549.00;;;;5027546;28;20226;-75
2023/10/07 09:01:37;;;;;;;11.10;5.73;;;;;17.70;101541.00;;;;5017989;28;20241;-75
2023/10/07 09:04:25;;;;;;;10.57;5.23;;;;;17.90;101534.00;;;;5019048;28;20233;-73
2023/10/07 09:07:11;;;;;;;9.70;5.37;;;;;17.90;101541.00;;;;5016397;28;20865;-74
2023/10/07 09:10:06;;;;;;;9.93;5.27;;;;;17.90;101521.00;;;;5018754;28;20288;-74
2023/10/07 09:12:57;;;;;;;12.13;4.70;;;;;18.00;101517.00;;;;5019725;28;20312;-73
2023/10/07 09:15:44;;;;;;;10.03;4.63;;;;;18.10;101531.00;;;;5020166;28;20245;-75
2023/10/07 09:18:32;;;;;;;9.77;4.70;;;;;18.20;101539.00;;;;5021087;28;20226;-73
2023/10/07 09:21:19;;;;;;;9.17;4.40;;;;;18.40;101540.00;;;;5019512;28;20248;-76
2023/10/07 09:24:13;;;;;;;10.90;4.80;;;;;18.40;101540.00;;;;5021350;28;20234;-73
2023/10/07 09:26:59;;;;;;;8.03;4.20;;;;;18.40;101546.00;;;;5021611;28;20249;-73
2023/10/07 09:29:51;;;;;;;8.87;4.77;;;;;18.60;101545.00;;;;5023174;28;20682;-76
2023/10/07 09:32:38;;;;;;;7.77;4.33;;;;;18.70;101546.00;;;;5020790;28;20226;-74
2023/10/07 09:35:26;;;;;;;8.83;4.50;;;;;18.80;101547.00;;;;5020927;28;20311;-74
2023/10/07 09:38:27;;;;;;;12.73;4.50;;;;;18.80;101548.00;;;;5026920;28;20275;-73
2023/10/07 09:41:25;;;;;;;8.37;4.17;;;;;18.90;101548.00;;;;5019092;28;20305;-75
2023/10/07 09:44:26;;;;;;;7.27;4.10;;;;;19.10;101535.00;;;;5014766;28;20225;-75
2023/10/07 09:47:21;;;;;;;9.57;4.00;;;;;19.20;101530.00;;;;5022751;28;20245;-75
2023/10/07 09:50:19;;;;;;;10.23;4.17;;;;;19.30;101525.00;;;;5020351;28;20575;-74
2023/10/07 09:53:24;;;;;;;6.87;3.60;;;;;19.40;101527.00;;;;5015897;28;20361;-74
2023/10/07 09:56:23;;;;;;;7.90;3.67;;;;;19.40;101526.00;;;;5024833;28;20931;-76
2023/10/07 09:59:22;;;;;;;7.10;3.30;;;;;19.50;101519.00;;;;5027194;28;20233;-75
2023/10/07 10:02:25;;;;;;;8.53;3.93;;;;;19.70;101514.00;;;;5024661;28;20602;-75
2023/10/07 10:05:31;;;;;;;7.37;3.50;;;;;19.80;101532.00;;;;5021109;28;20233;-75
2023/10/07 10:08:44;;;;;;;6.13;4.00;;;;;19.90;101525.00;;;;5025677;28;20880;-75
2023/10/07 10:11:46;;;;;;;8.07;3.67;;;;;20.00;101525.00;;;;5018423;28;20235;-75
2023/10/07 10:14:40;;;;;;;8.73;3.50;;;;;20.10;101531.00;;;;5021761;28;20705;-76
2023/10/07 10:17:33;;;;;;;5.77;3.10;;;;;20.10;101537.00;;;;5018918;28;20234;-77
2023/10/07 10:20:27;;;;;;;7.73;3.13;;;;;20.30;101535.00;;;;5025988;28;20641;-78
2023/10/07 10:23:19;;;;;;;6.63;3.60;;;;;20.60;101531.00;;;;5017876;28;20259;-77
2023/10/07 10:26:15;;;;;;;9.20;3.40;;;;;20.60;101537.00;;;;5020139;28;20232;-76
2023/10/07 10:29:04;;;;;;;7.17;3.40;;;;;20.60;101532.00;;;;5024167;28;20236;-76
2023/10/07 10:31:51;;;;;;;7.30;3.67;;;;;20.70;101518.00;;;;5013175;28;20232;-74
2023/10/07 10:34:38;;;;;;;6.53;3.30;;;;;20.70;101515.00;;;;5024727;28;20944;-74
2023/10/07 10:37:26;;;;;;;6.07;3.23;;;;;20.80;101507.00;;;;5027087;28;20240;-75
2023/10/07 10:40:17;;;;;;;5.80;3.07;;;;;21.00;101508.00;;;;5020811;28;20228;-76
2023/10/07 10:43:05;;;;;;;6.13;3.30;;;;;21.10;101513.00;;;;5023514;28;20274;-74
2023/10/07 10:46:01;;;;;;;5.37;2.70;;;;;21.20;101523.00;;;;5022772;28;20236;-74
2023/10/07 10:48:50;;;;;;;7.37;2.90;;;;;21.30;101522.00;;;;5029041;28;20328;-74
2023/10/07 10:51:39;;;;;;;8.13;3.13;;;;;21.50;101513.00;;;;5018583;28;20228;-75
2023/10/07 10:54:28;;;;;;;5.87;3.30;;;;;21.50;101513.00;;;;5013578;28;20228;-73
2023/10/07 10:57:19;;;;;;;5.50;2.80;;;;;21.70;101513.00;;;;5018945;28;20244;-71
2023/10/07 11:00:19;;;;;;;6.23;2.80;;;;;21.70;101505.00;;;;5019515;28;20280;-75
2023/10/07 11:03:06;;;;;;;5.83;2.73;;;;;21.70;101520.00;;;;5022882;28;20367;-75
2023/10/07 11:05:53;;;;;;;8.70;3.00;;;;;21.70;101511.00;;;;5024207;28;20299;-73
2023/10/07 11:08:40;;;;;;;5.43;2.47;;;;;21.80;101503.00;;;;5020453;28;20260;-74
2023/10/07 11:11:29;;;;;;;7.20;2.53;;;;;22.10;101513.00;;;;5023390;28;20237;-75
2023/10/07 11:14:20;;;;;;;5.70;2.67;;;;;22.20;101510.00;;;;5019270;28;20233;-72
2023/10/07 11:17:09;;;;;;;6.67;2.80;;;;;22.10;101506.00;;;;5023901;28;20848;-77
2023/10/07 11:19:58;;;;;;;5.53;2.70;;;;;21.90;101506.00;;;;5011836;28;20226;-72
2023/10/07 11:22:45;;;;;;;5.90;2.80;;;;;21.80;101517.00;;;;5022506;28;20292;-76
2023/10/07 11:25:33;;;;;;;4.67;2.70;;;;;21.70;101521.00;;;;5017845;28;20705;-77
2023/10/07 11:28:22;;;;;;;6.07;2.40;;;;;21.70;101515.00;;;;5029015;28;20294;-77
2023/10/07 11:31:19;;;;;;;6.20;2.70;;;;;21.50;101521.00;;;;5014561;28;20233;-74
2023/10/07 11:34:10;;;;;;;3.70;2.23;;;;;21.70;101525.00;;;;5008959;28;20334;-72
2023/10/07 11:37:06;;;;;;;7.10;2.67;;;;;21.90;101512.00;;;;5033120;28;20244;-73
2023/10/07 11:39:53;;;;;;;4.80;2.50;;;;;22.00;101507.00;;;;5019360;28;20711;-76
2023/10/07 11:42:40;;;;;;;4.73;2.43;;;;;22.20;101516.00;;;;5018967;28;20376;-75
2023/10/07 11:45:27;;;;;;;4.93;2.50;;;;;22.30;101519.00;;;;5007596;28;20725;-75
2023/10/07 11:48:14;;;;;;;4.80;2.70;;;;;22.50;101505.00;;;;5019086;28;20276;-77
2023/10/07 11:51:01;;;;;;;7.63;2.97;;;;;22.40;101524.00;;;;5020376;28;20232;-77
2023/10/07 11:53:48;;;;;;;4.73;2.53;;;;;22.40;101514.00;;;;5020166;28;20596;-75
2023/10/07 11:56:35;;;;;;;7.63;3.07;;;;;22.20;101516.00;;;;5024283;28;20240;-77
2023/10/07 11:59:21;;;;;;;6.37;2.40;;;;;22.20;101513.00;;;;5024648;28;20225;-73
2023/10/07 12:02:10;;;;;;;5.63;2.83;;;;;22.20;101514.00;;;;5025065;28;20292;-73
2023/10/07 12:04:59;;;;;;;6.47;2.53;;;;;22.10;101509.00;;;;5018082;28;20699;-77
2023/10/07 12:07:47;;;;;;;5.27;2.77;;;;;22.10;101510.00;;;;5020209;28;20328;-75
2023/10/07 12:10:36;;;;;;;7.30;2.97;;;;;22.00;101501.00;;;;5021176;28;20592;-73
2023/10/07 12:13:23;;;;;;;7.00;2.83;;;;;21.90;101518.00;;;;5027062;28;20276;-78
2023/10/07 12:16:09;;;;;;;5.30;2.93;;;;;22.00;101511.00;;;;5018740;28;20229;-74
2023/10/07 12:18:56;;;;;;;5.87;3.03;;;;;22.00;101531.00;;;;5011949;28;20981;-73
2023/10/07 12:21:43;;;;;;;6.10;2.73;;;;;22.00;101521.00;;;;5017057;28;20301;-75
2023/10/07 12:24:31;;;;;;;6.00;3.17;;;;;22.00;101518.00;;;;5019956;28;20773;-75
2023/10/07 12:27:17;;;;;;;8.93;2.80;;;;;22.30;101525.00;;;;5021471;28;20773;-73
2023/10/07 12:30:05;;;;;;;5.40;2.90;;;;;22.50;101518.00;;;;5015697;28;20240;-73
2023/10/07 12:32:52;;;;;;;6.73;2.50;;;;;22.60;101511.00;;;;5017227;28;20237;-72
2023/10/07 12:35:38;;;;;;;6.93;3.20;;;;;22.80;101515.00;;;;5023632;28;20233;-74
2023/10/07 12:38:24;;;;;;;5.67;3.07;;;;;23.00;101516.00;;;;5016470;28;20883;-71
2023/10/07 12:41:14;;;;;;;5.50;2.83;;;;;23.20;101522.00;;;;5010026;28;20235;-73
2023/10/07 12:44:02;;;;;;;8.10;3.10;;;;;23.30;101525.00;;;;5015169;28;20889;-73
2023/10/07 12:46:49;;;;;;;6.43;2.70;;;;;23.30;101523.00;;;;5022137;28;20267;-74
2023/10/07 12:49:38;;;;;;;6.73;2.93;;;;;23.30;101530.00;;;;5024626;28;20229;-73
2023/10/07 12:52:26;;;;;;;7.97;2.93;;;;;23.20;101515.00;;;;5015988;28;20241;-75
2023/10/07 12:55:12;;;;;;;7.90;3.37;;;;;23.20;101529.00;;;;5016032;28;20315;-74
2023/10/07 12:58:05;;;;;;;6.47;2.90;;;;;23.20;101527.00;;;;5023284;28;20237;-76
2023/10/07 13:00:52;;;;;;;6.50;3.23;;;;;23.30;101518.00;;;;5025169;28;20245;-74
2023/10/07 13:03:39;;;;;;;8.40;3.20;;;;;23.50;101522.00;;;;5023529;28;20311;-75
2023/10/07 13:06:28;;;;;;;5.33;3.10;;;;;23.50;101518.00;;;;5021294;28;20272;-74
2023/10/07 13:09:17;;;;;;;7.97;3.50;;;;;23.40;101517.00;;;;5022982;28;20233;-75
2023/10/07 13:12:11;;;;;;;7.23;3.50;;;;;23.40;101517.00;;;;5023633;28;20304;-76
2023/10/07 13:14:59;;;;;;;8.23;3.40;;;;;23.40;101514.00;;;;5026491;28;20245;-75
2023/10/07 13:17:47;;;;;;;6.20;3.50;;;;;23.50;101511.00;;;;5021496;28;20305;-76
2023/10/07 13:20:33;;;;;;;6.47;3.53;;;;;23.50;101510.00;;;;5025037;28;20229;-77
2023/10/07 13:23:22;;;;;;;8.70;3.10;;;;;23.70;101513.00;;;;5028288;28;20237;-76
2023/10/07 13:26:10;;;;;;;9.83;3.37;;;;;23.80;101512.00;;;;5026988;28;20233;-76
2023/10/07 13:28:56;;;;;;;6.30;3.20;;;;;23.80;101497.00;;;;5020674;28;20229;-74
2023/10/07 13:31:44;;;;;;;6.83;3.20;;;;;24.00;101494.00;;;;5023814;28;20336;-74
2023/10/07 13:34:31;;;;;;;9.40;3.20;;;;;24.00;101479.00;;;;5014019;28;21039;-76
2023/10/07 13:37:17;;;;;;;8.20;3.43;;;;;24.00;101478.00;;;;5018332;28;20241;-76
2023/10/07 13:40:07;;;;;;;5.43;3.10;;;;;24.10;101480.00;;;;5009836;28;20229;-72
2023/10/07 13:42:54;;;;;;;6.60;3.60;;;;;24.20;101466.00;;;;5021651;28;20241;-76
2023/10/07 13:45:41;;;;;;;6.23;3.33;;;;;24.00;101459.00;;;;5018457;28;20237;-75
2023/10/07 13:48:30;;;;;;;6.83;3.40;;;;;23.70;101462.00;;;;5029485;28;20284;-74
2023/10/07 13:51:16;;;;;;;6.77;3.53;;;;;23.60;101458.00;;;;5018399;28;20684;-73
2023/10/07 13:57:18;;;;;;;6.50;3.40;;;;;23.50;101464.00;;;;5016656;28;20237;-73